createdAt,value
2023-06-04T00:03:34.843Z,25.21
2023-06-04T00:07:36.303Z,24.67
2023-06-04T00:11:37.941Z,25.41
2023-06-04T00:15:39.347Z,24.90
2023-06-04T00:19:41.750Z,25.46
2023-06-04T00:23:43.404Z,25.11
2023-06-04T00:27:44.886Z,25.53
2023-06-04T00:31:46.313Z,25.32
2023-06-04T00:35:47.795Z,25.19
2023-06-04T00:39:49.247Z,24.62
2023-06-04T00:43:57.074Z,24.97
2023-06-04T00:47:59.221Z,24.84
2023-06-04T00:52:00.673Z,24.72
2023-06-04T00:56:02.056Z,24.59
2023-06-04T01:00:05.466Z,24.53
2023-06-04T01:04:13.304Z,24.51
2023-06-04T01:08:16.302Z,24.35
2023-06-04T01:12:17.709Z,24.52
2023-06-04T01:16:19.274Z,24.41
2023-06-04T01:20:48.077Z,24.30
2023-06-04T01:24:56.608Z,24.18
2023-06-04T01:28:59.589Z,24.08
2023-06-04T01:33:02.088Z,23.98
2023-06-04T01:37:03.528Z,23.93
2023-06-04T01:41:05.124Z,23.20
2023-06-04T01:45:07.098Z,23.21
2023-06-04T01:49:08.560Z,24.21
2023-06-04T01:53:09.971Z,22.97
2023-06-04T01:57:11.346Z,24.14
2023-06-04T02:01:12.933Z,24.31
2023-06-04T02:05:14.602Z,24.09
2023-06-04T02:09:16.042Z,24.01
2023-06-04T02:13:17.493Z,22.46
2023-06-04T02:17:18.849Z,22.85
2023-06-04T02:21:20.342Z,22.33
2023-06-04T02:25:22.639Z,21.72
2023-06-04T02:29:23.918Z,23.87
2023-06-04T02:33:25.866Z,24.08
2023-06-04T02:37:27.172Z,23.98
2023-06-04T02:41:28.545Z,23.56
2023-06-04T02:45:29.975Z,23.63
2023-06-04T02:49:31.872Z,23.51
2023-06-04T02:53:33.310Z,23.46
2023-06-04T02:57:34.686Z,23.40
2023-06-04T03:01:36.559Z,23.33
2023-06-04T03:05:40.620Z,22.90
2023-06-04T03:09:41.935Z,23.08
2023-06-04T03:13:43.463Z,22.29
2023-06-04T03:17:45.263Z,22.47
2023-06-04T03:21:47.776Z,23.28
2023-06-04T03:25:49.228Z,23.36
2023-06-04T03:29:50.925Z,23.19
2023-06-04T03:33:52.395Z,22.81
2023-06-04T03:37:53.802Z,21.11
2023-06-04T03:41:55.945Z,22.45
2023-06-04T03:45:57.311Z,22.35
2023-06-04T03:49:58.632Z,23.17
2023-06-04T03:54:00.131Z,23.01
2023-06-04T03:58:01.701Z,22.41
2023-06-04T04:02:03.083Z,22.26
2023-06-04T04:06:04.468Z,22.92
2023-06-04T04:10:06.983Z,22.17
2023-06-04T04:14:08.301Z,22.06
2023-06-04T04:18:11.615Z,22.10
2023-06-04T04:22:13.969Z,22.02
2023-06-04T04:26:17.671Z,22.51
2023-06-04T04:30:20.530Z,22.92
2023-06-04T04:34:22.050Z,23.18
2023-06-04T04:38:24.824Z,22.30
2023-06-04T04:42:26.283Z,23.51
2023-06-04T04:46:27.622Z,24.58
2023-06-04T04:50:28.977Z,23.82
2023-06-04T04:54:30.397Z,23.82
2023-06-04T04:58:31.819Z,25.14
2023-06-04T05:02:33.271Z,25.37
2023-06-04T05:06:34.633Z,25.47
2023-06-04T05:10:36.906Z,25.67
2023-06-04T05:14:38.352Z,25.97
2023-06-04T05:18:42.618Z,25.93
2023-06-04T05:22:44.532Z,26.83
2023-06-04T05:26:45.887Z,26.69
2023-06-04T05:30:49.717Z,26.04
2023-06-04T05:34:51.029Z,25.76
2023-06-04T05:38:58.014Z,27.77
2023-06-04T05:42:59.370Z,28.90
2023-06-04T05:47:00.911Z,28.94
2023-06-04T05:51:02.235Z,28.49
2023-06-04T05:55:03.813Z,26.46
2023-06-04T05:59:05.194Z,26.51
2023-06-04T06:03:07.693Z,28.06
2023-06-04T06:07:09.551Z,30.13
2023-06-04T06:11:11.461Z,31.44
2023-06-04T06:15:13.393Z,31.99
2023-06-04T06:19:14.702Z,31.70
2023-06-04T06:23:17.619Z,31.20
2023-06-04T06:27:19.141Z,32.56
2023-06-04T06:31:21.482Z,34.32
2023-06-04T06:35:22.856Z,33.73
2023-06-04T06:39:24.294Z,34.66
2023-06-04T06:43:25.692Z,28.55
2023-06-04T06:47:27.035Z,31.68
2023-06-04T06:51:28.381Z,34.97
2023-06-04T06:55:29.733Z,31.08
2023-06-04T06:59:32.351Z,31.68
2023-06-04T07:03:33.940Z,32.53
2023-06-04T07:07:35.342Z,35.82
2023-06-04T07:11:37.010Z,34.06
2023-06-04T07:15:38.338Z,35.03
2023-06-04T07:19:39.704Z,34.88
2023-06-04T07:23:41.530Z,36.38
2023-06-04T07:27:42.922Z,33.24
2023-06-04T07:31:44.335Z,35.06
2023-06-04T07:35:45.686Z,35.15
2023-06-04T07:39:47.029Z,36.41
2023-06-04T07:43:48.320Z,35.53
2023-06-04T07:47:49.701Z,36.59
2023-06-04T07:51:51.025Z,37.26
2023-06-04T07:55:52.852Z,34.52
2023-06-04T07:59:54.203Z,34.33
2023-06-04T08:03:56.977Z,34.65
2023-06-04T08:07:58.441Z,36.14
2023-06-04T08:12:01.056Z,30.62
2023-06-04T08:16:02.382Z,35.78
2023-06-04T08:20:07.433Z,34.54
2023-06-04T08:24:10.037Z,33.29
2023-06-04T08:28:11.442Z,33.98
2023-06-04T08:32:12.841Z,30.57
2023-06-04T08:36:14.658Z,34.64
2023-06-04T08:40:16.048Z,32.35
2023-06-04T08:44:18.372Z,30.96
2023-06-04T08:48:31.224Z,34.09
2023-06-04T08:52:37.250Z,34.29
2023-06-04T08:56:38.592Z,37.38
2023-06-04T09:00:40.119Z,35.17
2023-06-04T09:04:41.628Z,36.13
2023-06-04T09:08:51.152Z,38.21
2023-06-04T09:13:03.718Z,37.25
2023-06-04T09:17:05.086Z,38.40
2023-06-04T09:21:09.594Z,38.91
2023-06-04T09:25:21.061Z,38.55
2023-06-04T09:29:22.446Z,33.81
2023-06-04T09:33:24.506Z,37.84
2023-06-04T09:37:27.780Z,37.28
2023-06-04T09:41:29.389Z,35.75
2023-06-04T09:45:36.321Z,33.37
2023-06-04T09:49:44.876Z,33.44
2023-06-04T09:53:56.992Z,34.71
2023-06-04T09:58:00.242Z,35.78
2023-06-04T10:02:02.712Z,35.16
2023-06-04T10:06:06.228Z,38.93
2023-06-04T10:10:12.124Z,35.44
2023-06-04T10:14:26.354Z,34.80
2023-06-04T10:18:31.749Z,31.96
2023-06-04T10:22:34.077Z,35.52
2023-06-04T10:26:36.484Z,38.24
2023-06-04T10:30:37.858Z,35.35
2023-06-04T10:34:39.345Z,34.96
2023-06-04T10:38:46.539Z,33.95
2023-06-04T10:42:48.209Z,35.85
2023-06-04T10:46:49.557Z,38.83
2023-06-04T10:50:52.748Z,39.62
2023-06-04T10:55:05.756Z,37.80
2023-06-04T10:59:17.927Z,36.11
2023-06-04T11:03:19.492Z,35.78
2023-06-04T11:07:21.073Z,36.17
2023-06-04T11:11:22.425Z,36.39
2023-06-04T11:15:23.826Z,39.63
2023-06-04T11:19:25.283Z,35.11
2023-06-04T11:23:26.768Z,37.80
2023-06-04T11:27:36.307Z,38.85
2023-06-04T11:31:46.390Z,36.53
2023-06-04T11:35:47.786Z,38.92
2023-06-04T11:39:49.139Z,35.89
2023-06-04T11:43:50.786Z,34.77
2023-06-04T11:47:56.750Z,38.95
2023-06-04T11:51:58.624Z,39.58
2023-06-04T11:56:00.249Z,38.67
2023-06-04T12:00:11.749Z,36.88
2023-06-04T12:04:17.586Z,34.49
2023-06-04T12:08:19.329Z,33.23
2023-06-04T12:12:26.252Z,34.10
2023-06-04T12:16:28.389Z,35.36
2023-06-04T12:20:38.096Z,37.00
2023-06-04T12:25:00.047Z,35.06
2023-06-04T12:29:02.641Z,34.76
2023-06-04T12:33:04.056Z,36.90
2023-06-04T12:37:06.989Z,36.55
2023-06-04T12:41:08.315Z,36.20
2023-06-04T12:45:11.374Z,34.01
2023-06-04T12:49:13.288Z,35.78
2023-06-04T12:53:14.588Z,33.05
2023-06-04T12:57:16.111Z,35.01
2023-06-04T13:01:17.487Z,32.79
2023-06-04T13:05:18.889Z,33.71
2023-06-04T13:09:21.564Z,35.05
2023-06-04T13:13:23.014Z,34.96
2023-06-04T13:17:24.377Z,33.35
2023-06-04T13:21:25.848Z,32.85
2023-06-04T13:25:29.378Z,34.14
2023-06-04T13:29:34.556Z,35.00
2023-06-04T13:33:36.254Z,32.61
2023-06-04T13:37:37.590Z,33.63
2023-06-04T13:41:39.174Z,32.67
2023-06-04T13:45:41.197Z,32.18
2023-06-04T13:49:42.493Z,32.48
2023-06-04T13:53:43.830Z,33.15
2023-06-04T13:57:45.141Z,33.00
2023-06-04T14:01:46.618Z,32.99
2023-06-04T14:05:48.066Z,33.97
2023-06-04T14:09:55.207Z,34.64
2023-06-04T14:13:57.071Z,33.53
2023-06-04T14:17:58.438Z,31.98
2023-06-04T14:21:59.925Z,32.81
2023-06-04T14:26:01.359Z,33.66
2023-06-04T14:30:04.468Z,32.95
2023-06-04T14:34:07.410Z,33.75
2023-06-04T14:38:08.741Z,31.88
2023-06-04T14:42:10.064Z,30.24
2023-06-04T14:46:11.753Z,33.71
2023-06-04T14:50:13.142Z,32.24
2023-06-04T14:54:14.532Z,31.88
2023-06-04T14:58:16.519Z,33.55
2023-06-04T15:02:20.421Z,32.06
2023-06-04T15:06:22.028Z,32.61
2023-06-04T15:10:23.436Z,34.15
2023-06-04T15:14:24.752Z,33.11
2023-06-04T15:18:26.170Z,33.25
2023-06-04T15:22:28.408Z,34.17
2023-06-04T15:26:29.903Z,32.81
2023-06-04T15:30:31.434Z,33.46
2023-06-04T15:34:32.755Z,33.47
2023-06-04T15:38:34.479Z,34.38
2023-06-04T15:42:35.785Z,33.24
2023-06-04T15:46:37.205Z,31.69
2023-06-04T15:50:38.595Z,32.40
2023-06-04T15:54:46.394Z,33.54
2023-06-04T15:58:48.162Z,34.60
2023-06-04T16:02:49.725Z,32.38
2023-06-04T16:06:51.120Z,32.70
2023-06-04T16:10:52.497Z,32.43
2023-06-04T16:14:53.835Z,32.48
2023-06-04T16:18:55.264Z,33.78
2023-06-04T16:22:56.644Z,31.78
2023-06-04T16:26:58.035Z,32.47
2023-06-04T16:30:59.468Z,32.44
2023-06-04T16:35:03.069Z,32.38
2023-06-04T16:39:04.980Z,32.18
2023-06-04T16:43:07.343Z,31.87
2023-06-04T16:47:09.265Z,31.98
2023-06-04T16:51:11.742Z,31.79
2023-06-04T16:55:17.218Z,31.91
2023-06-04T16:59:18.552Z,31.37
2023-06-04T17:03:20.105Z,32.46
2023-06-04T17:07:21.974Z,30.93
2023-06-04T17:11:23.321Z,32.06
2023-06-04T17:15:24.643Z,32.03
2023-06-04T17:19:26.064Z,31.99
2023-06-04T17:23:27.638Z,29.87
2023-06-04T17:27:29.041Z,31.16
2023-06-04T17:31:31.514Z,32.24
2023-06-04T17:35:32.889Z,32.10
2023-06-04T17:39:34.940Z,31.56
2023-06-04T17:43:37.121Z,29.40
2023-06-04T17:47:38.902Z,30.39
2023-06-04T17:51:40.416Z,31.78
2023-06-04T17:55:41.781Z,30.88
2023-06-04T17:59:43.079Z,31.60
2023-06-04T18:03:44.560Z,30.16
2023-06-04T18:07:46.419Z,30.41
2023-06-04T18:11:47.795Z,29.60
2023-06-04T18:15:49.375Z,30.76
2023-06-04T18:19:52.316Z,30.67
2023-06-04T18:23:54.228Z,31.08
2023-06-04T18:27:55.783Z,29.46
2023-06-04T18:31:57.223Z,30.67
2023-06-04T18:35:58.705Z,31.30
2023-06-04T18:40:00.024Z,30.53
2023-06-04T18:44:01.360Z,29.64
2023-06-04T18:48:02.946Z,29.24
2023-06-04T18:52:04.638Z,30.65
2023-06-04T18:56:06.091Z,29.22
2023-06-04T19:00:09.523Z,29.96
2023-06-04T19:04:13.517Z,30.16
2023-06-04T19:08:14.950Z,30.04
2023-06-04T19:12:16.257Z,30.11
2023-06-04T19:16:17.775Z,29.89
2023-06-04T19:20:19.218Z,29.87
2023-06-04T19:24:23.657Z,29.52
2023-06-04T19:28:24.961Z,29.62
2023-06-04T19:32:29.071Z,29.31
2023-06-04T19:36:30.587Z,29.36
2023-06-04T19:40:32.029Z,29.92
2023-06-04T19:44:33.477Z,29.48
2023-06-04T19:48:34.809Z,28.97
2023-06-04T19:52:36.292Z,29.37
2023-06-04T19:56:38.802Z,29.81
2023-06-04T20:00:40.190Z,29.52
2023-06-04T20:04:42.091Z,29.76
2023-06-04T20:08:44.246Z,29.03
2023-06-04T20:12:46.009Z,29.68
2023-06-04T20:16:47.443Z,28.57
2023-06-04T20:20:53.194Z,28.95
2023-06-04T20:24:54.631Z,28.17
2023-06-04T20:28:59.410Z,29.00
2023-06-04T20:33:00.894Z,29.55
2023-06-04T20:37:04.108Z,28.81
2023-06-04T20:41:05.674Z,29.04
2023-06-04T20:45:07.701Z,27.75
2023-06-04T20:49:09.128Z,27.51
2023-06-04T20:53:10.504Z,28.45
2023-06-04T20:57:11.792Z,28.07
2023-06-04T21:01:13.280Z,28.68
2023-06-04T21:05:14.768Z,29.15
2023-06-04T21:09:16.192Z,28.46
2023-06-04T21:13:17.820Z,28.82
2023-06-04T21:17:19.447Z,28.89
2023-06-04T21:21:20.945Z,28.05
2023-06-04T21:25:22.382Z,29.01
2023-06-04T21:29:24.088Z,27.45
2023-06-04T21:33:25.648Z,28.43
2023-06-04T21:37:27.034Z,28.39
2023-06-04T21:41:28.400Z,28.32
2023-06-04T21:45:29.730Z,27.42
2023-06-04T21:49:31.603Z,28.15
2023-06-04T21:53:32.977Z,28.38
2023-06-04T21:57:34.356Z,27.97
2023-06-04T22:01:35.922Z,27.65
2023-06-04T22:05:37.376Z,28.07
2023-06-04T22:09:38.726Z,28.12
2023-06-04T22:13:40.133Z,27.96
2023-06-04T22:17:41.779Z,27.33
2023-06-04T22:21:43.117Z,26.98
2023-06-04T22:25:44.570Z,26.49
2023-06-04T22:29:46.016Z,26.94
2023-06-04T22:33:47.365Z,27.28
2023-06-04T22:37:48.711Z,27.06
2023-06-04T22:41:50.102Z,26.82
2023-06-04T22:45:51.554Z,27.41
2023-06-04T22:49:52.953Z,27.66
2023-06-04T22:53:56.107Z,27.06
2023-06-04T22:58:00.131Z,27.43
2023-06-04T23:02:01.491Z,26.78
2023-06-04T23:06:02.871Z,26.90
2023-06-04T23:10:06.993Z,27.67
2023-06-04T23:14:08.385Z,27.61
2023-06-04T23:18:10.000Z,27.27
2023-06-04T23:22:11.476Z,27.44
2023-06-04T23:26:12.875Z,27.11
2023-06-04T23:30:14.814Z,27.37
2023-06-04T23:34:16.671Z,27.23
2023-06-04T23:38:18.021Z,26.88
2023-06-04T23:42:19.409Z,26.64
2023-06-04T23:46:21.652Z,26.89
2023-06-04T23:50:23.032Z,27.10
2023-06-04T23:54:24.465Z,27.08
2023-06-04T23:58:26.013Z,27.04
